sensor_id;sensor_type;location;lat;lon;timestamp;pressure;altitude;pressure_sealevel;temperature;humidity
60725;BME280;59881;36.722;-4.462;2023-04-10T00:01:49;101189.47;;;13.17;94.96
60725;BME280;59881;36.722;-4.462;2023-04-10T00:04:15;101296.28;;;13.80;94.80
60725;BME280;59881;36.722;-4.462;2023-04-10T00:06:41;101365.91;;;14.32;94.09
60725;BME280;59881;36.722;-4.462;2023-04-10T00:09:07;101133.31;;;12.88;93.95
60725;BME280;59881;36.722;-4.462;2023-04-10T00:11:33;101383.94;;;14.26;93.95
60725;BME280;59881;36.722;-4.462;2023-04-10T00:13:59;101202.03;;;13.26;93.55
60725;BME280;59881;36.722;-4.462;2023-04-10T00:16:25;101246.75;;;13.43;93.39
60725;BME280;59881;36.722;-4.462;2023-04-10T00:18:50;101367.72;;;14.18;93.48
60725;BME280;59881;36.722;-4.462;2023-04-10T00:21:16;101011.06;;;11.94;92.48
60725;BME280;59881;36.722;-4.462;2023-04-10T00:23:41;101359.78;;;14.18;91.96
60725;BME280;59881;36.722;-4.462;2023-04-10T00:26:07;101306.13;;;13.91;91.12
60725;BME280;59881;36.722;-4.462;2023-04-10T00:28:33;101257.53;;;13.66;88.81
60725;BME280;59881;36.722;-4.462;2023-04-10T00:31:05;101169.59;;;13.24;85.39
60725;BME280;59881;36.722;-4.462;2023-04-10T00:33:31;101157.28;;;13.10;83.30
60725;BME280;59881;36.722;-4.462;2023-04-10T00:35:56;101014.69;;;12.32;81.76
60725;BME280;59881;36.722;-4.462;2023-04-10T00:38:22;101349.16;;;14.31;80.77
60725;BME280;59881;36.722;-4.462;2023-04-10T00:40:47;101289.91;;;13.95;79.48
60725;BME280;59881;36.722;-4.462;2023-04-10T00:43:13;101340.97;;;14.34;78.71
60725;BME280;59881;36.722;-4.462;2023-04-10T00:45:38;101331.84;;;14.38;77.10
60725;BME280;59881;36.722;-4.462;2023-04-10T00:48:04;101225.78;;;13.66;75.76
60725;BME280;59881;36.722;-4.462;2023-04-10T00:50:30;101308.44;;;14.32;74.24
60725;BME280;59881;36.722;-4.462;2023-04-10T00:52:57;101294.84;;;14.37;73.02
60725;BME280;59881;36.722;-4.462;2023-04-10T00:55:23;101288.50;;;14.39;72.09
60725;BME280;59881;36.722;-4.462;2023-04-10T00:57:49;101322.13;;;14.63;71.26
60725;BME280;59881;36.722;-4.462;2023-04-10T01:00:15;101289.38;;;14.51;70.12
60725;BME280;59881;36.722;-4.462;2023-04-10T01:02:41;101314.84;;;14.78;68.53
60725;BME280;59881;36.722;-4.462;2023-04-10T01:05:08;101208.44;;;14.10;67.02
60725;BME280;59881;36.722;-4.462;2023-04-10T01:07:51;101214.72;;;14.33;66.07
60725;BME280;59881;36.722;-4.462;2023-04-10T01:13:02;101349.66;;;14.97;65.48
60725;BME280;59881;36.722;-4.462;2023-04-10T01:15:39;101292.09;;;14.86;64.51
60725;BME280;59881;36.722;-4.462;2023-04-10T01:19:07;101286.97;;;15.07;63.95
60725;BME280;59881;36.722;-4.462;2023-04-10T01:21:10;101075.75;;;13.78;63.28
60725;BME280;59881;36.722;-4.462;2023-04-10T01:24:13;101285.03;;;15.09;63.41
60725;BME280;59881;36.722;-4.462;2023-04-10T01:29:32;101277.78;;;15.00;64.09
60725;BME280;59881;36.722;-4.462;2023-04-10T01:32:26;101253.25;;;14.85;64.15
60725;BME280;59881;36.722;-4.462;2023-04-10T01:34:56;101155.53;;;14.21;64.17
60725;BME280;59881;36.722;-4.462;2023-04-10T01:37:26;101295.88;;;14.95;64.24
60725;BME280;59881;36.722;-4.462;2023-04-10T01:40:13;101272.94;;;14.94;64.38
60725;BME280;59881;36.722;-4.462;2023-04-10T01:42:46;101150.50;;;14.05;64.56
60725;BME280;59881;36.722;-4.462;2023-04-10T01:45:17;100971.06;;;13.13;64.42
60725;BME280;59881;36.722;-4.462;2023-04-10T01:47:43;101269.44;;;14.94;64.89
60725;BME280;59881;36.722;-4.462;2023-04-10T01:50:10;101254.81;;;14.77;64.99
60725;BME280;59881;36.722;-4.462;2023-04-10T01:52:36;101130.03;;;14.07;64.96
60725;BME280;59881;36.722;-4.462;2023-04-10T01:55:03;101259.84;;;15.04;64.25
60725;BME280;59881;36.722;-4.462;2023-04-10T01:57:30;101144.34;;;14.29;64.50
60725;BME280;59881;36.722;-4.462;2023-04-10T01:59:57;101125.69;;;14.31;63.99
60725;BME280;59881;36.722;-4.462;2023-04-10T02:02:22;101153.91;;;14.43;63.96
60725;BME280;59881;36.722;-4.462;2023-04-10T02:04:48;101257.69;;;15.20;63.61
60725;BME280;59881;36.722;-4.462;2023-04-10T02:07:24;101255.28;;;15.17;63.88
60725;BME280;59881;36.722;-4.462;2023-04-10T02:12:21;101130.03;;;14.43;64.00
60725;BME280;59881;36.722;-4.462;2023-04-10T02:14:48;101242.59;;;15.09;64.24
60725;BME280;59881;36.722;-4.462;2023-04-10T02:17:17;101133.28;;;14.35;64.19
60725;BME280;59881;36.722;-4.462;2023-04-10T02:19:46;101107.34;;;14.27;63.65
60725;BME280;59881;36.722;-4.462;2023-04-10T02:22:14;101144.13;;;14.43;63.28
60725;BME280;59881;36.722;-4.462;2023-04-10T02:24:40;101262.41;;;15.17;63.21
60725;BME280;59881;36.722;-4.462;2023-04-10T02:27:05;101067.00;;;13.89;63.11
60725;BME280;59881;36.722;-4.462;2023-04-10T02:29:31;101077.41;;;14.03;63.37
60725;BME280;59881;36.722;-4.462;2023-04-10T02:31:56;101140.91;;;14.40;63.19
60725;BME280;59881;36.722;-4.462;2023-04-10T02:34:22;101261.44;;;15.18;63.17
60725;BME280;59881;36.722;-4.462;2023-04-10T02:36:47;101263.34;;;15.16;62.85
60725;BME280;59881;36.722;-4.462;2023-04-10T02:39:13;101071.66;;;14.09;62.42
60725;BME280;59881;36.722;-4.462;2023-04-10T02:41:39;101240.91;;;15.08;62.34
60725;BME280;59881;36.722;-4.462;2023-04-10T02:44:04;101025.19;;;13.81;62.09
60725;BME280;59881;36.722;-4.462;2023-04-10T02:46:31;101078.31;;;14.15;61.87
60725;BME280;59881;36.722;-4.462;2023-04-10T02:48:56;101270.03;;;15.32;61.95
60725;BME280;59881;36.722;-4.462;2023-04-10T02:51:22;100954.81;;;13.54;61.42
60725;BME280;59881;36.722;-4.462;2023-04-10T02:53:47;101229.59;;;15.18;61.51
60725;BME280;59881;36.722;-4.462;2023-04-10T02:56:13;101110.19;;;14.48;61.52
60725;BME280;59881;36.722;-4.462;2023-04-10T02:58:38;101296.22;;;15.37;61.27
60725;BME280;59881;36.722;-4.462;2023-04-10T03:01:05;101253.75;;;15.37;61.37
60725;BME280;59881;36.722;-4.462;2023-04-10T03:03:31;101251.19;;;15.36;61.04
60725;BME280;59881;36.722;-4.462;2023-04-10T03:05:57;100827.16;;;12.56;61.17
60725;BME280;59881;36.722;-4.462;2023-04-10T03:08:22;101267.97;;;15.36;61.22
60725;BME280;59881;36.722;-4.462;2023-04-10T03:10:48;101133.03;;;14.62;61.17
60725;BME280;59881;36.722;-4.462;2023-04-10T03:13:14;101249.88;;;15.41;61.24
60725;BME280;59881;36.722;-4.462;2023-04-10T03:15:40;100873.09;;;13.14;61.13
60725;BME280;59881;36.722;-4.462;2023-04-10T03:18:05;101172.63;;;14.88;60.63
60725;BME280;59881;36.722;-4.462;2023-04-10T03:20:32;101248.69;;;15.57;60.19
60725;BME280;59881;36.722;-4.462;2023-04-10T03:22:58;101249.16;;;15.62;59.89
60725;BME280;59881;36.722;-4.462;2023-04-10T03:25:25;101216.69;;;15.47;59.82
60725;BME280;59881;36.722;-4.462;2023-04-10T03:27:51;101252.44;;;15.65;59.46
60725;BME280;59881;36.722;-4.462;2023-04-10T03:30:17;101115.69;;;14.81;58.94
60725;BME280;59881;36.722;-4.462;2023-04-10T03:32:43;101250.47;;;15.67;58.91
60725;BME280;59881;36.722;-4.462;2023-04-10T03:35:09;101274.72;;;15.63;59.19
60725;BME280;59881;36.722;-4.462;2023-04-10T03:37:35;101105.66;;;14.62;59.30
60725;BME280;59881;36.722;-4.462;2023-04-10T03:40:04;101262.19;;;15.53;59.53
60725;BME280;59881;36.722;-4.462;2023-04-10T03:42:30;101141.63;;;14.77;59.25
60725;BME280;59881;36.722;-4.462;2023-04-10T03:44:56;100971.84;;;13.74;59.24
60725;BME280;59881;36.722;-4.462;2023-04-10T03:47:21;101169.00;;;15.00;59.24
60725;BME280;59881;36.722;-4.462;2023-04-10T03:49:47;101152.22;;;14.77;59.35
60725;BME280;59881;36.722;-4.462;2023-04-10T03:52:12;101135.69;;;14.74;59.33
60725;BME280;59881;36.722;-4.462;2023-04-10T03:54:38;101273.78;;;15.52;59.50
60725;BME280;59881;36.722;-4.462;2023-04-10T03:57:03;101273.41;;;15.57;58.80
60725;BME280;59881;36.722;-4.462;2023-04-10T03:59:29;101260.03;;;15.59;58.79
60725;BME280;59881;36.722;-4.462;2023-04-10T04:01:55;101075.47;;;14.52;58.24
60725;BME280;59881;36.722;-4.462;2023-04-10T04:04:20;101225.63;;;15.46;58.66
60725;BME280;59881;36.722;-4.462;2023-04-10T04:06:46;101253.75;;;15.71;57.95
60725;BME280;59881;36.722;-4.462;2023-04-10T04:09:12;101254.13;;;15.78;57.39
60725;BME280;59881;36.722;-4.462;2023-04-10T04:11:38;101117.66;;;15.01;56.95
60725;BME280;59881;36.722;-4.462;2023-04-10T04:14:03;101105.06;;;14.92;56.69
60725;BME280;59881;36.722;-4.462;2023-04-10T04:16:29;101081.19;;;14.81;56.49
60725;BME280;59881;36.722;-4.462;2023-04-10T04:18:55;101096.78;;;14.97;55.95
60725;BME280;59881;36.722;-4.462;2023-04-10T04:21:20;101150.78;;;15.29;56.19
60725;BME280;59881;36.722;-4.462;2023-04-10T04:23:46;101173.25;;;15.37;56.49
60725;BME280;59881;36.722;-4.462;2023-04-10T04:26:11;101250.16;;;15.83;56.10
60725;BME280;59881;36.722;-4.462;2023-04-10T04:28:37;101216.06;;;15.66;56.00
60725;BME280;59881;36.722;-4.462;2023-04-10T04:31:02;101134.78;;;15.08;55.69
60725;BME280;59881;36.722;-4.462;2023-04-10T04:33:28;101247.13;;;15.88;55.64
60725;BME280;59881;36.722;-4.462;2023-04-10T04:35:55;101216.34;;;15.74;55.44
60725;BME280;59881;36.722;-4.462;2023-04-10T04:38:21;101159.00;;;15.38;55.15
60725;BME280;59881;36.722;-4.462;2023-04-10T04:40:46;101225.50;;;15.81;55.00
60725;BME280;59881;36.722;-4.462;2023-04-10T04:43:12;101222.13;;;15.79;54.72
60725;BME280;59881;36.722;-4.462;2023-04-10T04:45:37;101218.88;;;15.76;54.73
60725;BME280;59881;36.722;-4.462;2023-04-10T04:48:03;101246.75;;;15.92;54.66
60725;BME280;59881;36.722;-4.462;2023-04-10T04:50:28;101157.09;;;15.28;55.19
60725;BME280;59881;36.722;-4.462;2023-04-10T04:52:54;101253.53;;;15.85;55.03
60725;BME280;59881;36.722;-4.462;2023-04-10T04:55:19;101194.50;;;15.48;55.05
60725;BME280;59881;36.722;-4.462;2023-04-10T04:57:45;101126.34;;;15.03;55.34
60725;BME280;59881;36.722;-4.462;2023-04-10T05:00:11;101151.06;;;15.04;55.29
60725;BME280;59881;36.722;-4.462;2023-04-10T05:02:36;101258.34;;;15.80;55.28
60725;BME280;59881;36.722;-4.462;2023-04-10T05:05:02;101259.31;;;15.68;55.27
60725;BME280;59881;36.722;-4.462;2023-04-10T05:07:27;101183.00;;;15.36;55.22
60725;BME280;59881;36.722;-4.462;2023-04-10T05:09:53;101182.19;;;15.24;55.01
60725;BME280;59881;36.722;-4.462;2023-04-10T05:12:19;101144.66;;;15.18;55.01
60725;BME280;59881;36.722;-4.462;2023-04-10T05:14:45;100967.88;;;14.15;54.74
60725;BME280;59881;36.722;-4.462;2023-04-10T05:17:10;101262.31;;;15.97;54.68
60725;BME280;59881;36.722;-4.462;2023-04-10T05:19:36;101212.44;;;15.67;54.62
60725;BME280;59881;36.722;-4.462;2023-04-10T05:22:01;101124.03;;;15.10;54.47
60725;BME280;59881;36.722;-4.462;2023-04-10T05:24:27;101266.94;;;15.84;54.45
60725;BME280;59881;36.722;-4.462;2023-04-10T05:26:52;101069.88;;;14.67;54.22
60725;BME280;59881;36.722;-4.462;2023-04-10T05:29:18;101271.25;;;16.07;54.17
60725;BME280;59881;36.722;-4.462;2023-04-10T05:31:43;101236.50;;;15.88;53.99
60725;BME280;59881;36.722;-4.462;2023-04-10T05:34:09;101199.88;;;15.69;53.66
60725;BME280;59881;36.722;-4.462;2023-04-10T05:36:35;101196.41;;;15.57;53.72
60725;BME280;59881;36.722;-4.462;2023-04-10T05:39:01;101272.66;;;16.11;53.60
60725;BME280;59881;36.722;-4.462;2023-04-10T05:41:27;101088.56;;;15.00;53.55
60725;BME280;59881;36.722;-4.462;2023-04-10T05:43:52;101164.66;;;15.44;53.24
60725;BME280;59881;36.722;-4.462;2023-04-10T05:46:18;101240.81;;;15.89;53.14
60725;BME280;59881;36.722;-4.462;2023-04-10T05:48:43;101185.66;;;15.47;53.08
60725;BME280;59881;36.722;-4.462;2023-04-10T05:51:09;101142.47;;;15.34;53.03
60725;BME280;59881;36.722;-4.462;2023-04-10T05:53:36;101150.94;;;15.39;52.81
60725;BME280;59881;36.722;-4.462;2023-04-10T05:56:02;101288.47;;;16.24;52.76
60725;BME280;59881;36.722;-4.462;2023-04-10T05:58:28;101293.78;;;16.24;52.80
60725;BME280;59881;36.722;-4.462;2023-04-10T06:00:54;101305.88;;;16.28;52.99
60725;BME280;59881;36.722;-4.462;2023-04-10T06:03:20;101251.47;;;15.78;53.05
60725;BME280;59881;36.722;-4.462;2023-04-10T06:05:46;101190.13;;;15.58;53.26
60725;BME280;59881;36.722;-4.462;2023-04-10T06:08:12;101260.63;;;16.07;53.23
60725;BME280;59881;36.722;-4.462;2023-04-10T06:10:37;101310.41;;;16.49;53.21
60725;BME280;59881;36.722;-4.462;2023-04-10T06:13:03;101312.41;;;16.68;53.13
60725;BME280;59881;36.722;-4.462;2023-04-10T06:15:28;101316.00;;;16.89;53.18
60725;BME280;59881;36.722;-4.462;2023-04-10T06:17:54;101312.94;;;16.94;53.14
60725;BME280;59881;36.722;-4.462;2023-04-10T06:20:20;101314.91;;;17.34;53.49
60725;BME280;59881;36.722;-4.462;2023-04-10T06:22:46;101197.00;;;16.80;53.74
60725;BME280;59881;36.722;-4.462;2023-04-10T06:25:11;101111.66;;;16.51;53.72
60725;BME280;59881;36.722;-4.462;2023-04-10T06:27:37;101321.13;;;17.96;54.33
60725;BME280;59881;36.722;-4.462;2023-04-10T06:30:03;101287.00;;;17.90;54.61
60725;BME280;59881;36.722;-4.462;2023-04-10T06:32:29;101178.00;;;17.46;54.66
60725;BME280;59881;36.722;-4.462;2023-04-10T06:34:54;101021.91;;;16.74;54.37
60725;BME280;59881;36.722;-4.462;2023-04-10T06:37:27;101327.50;;;18.94;54.18
60725;BME280;59881;36.722;-4.462;2023-04-10T06:40:02;101331.22;;;19.30;53.39
60725;BME280;59881;36.722;-4.462;2023-04-10T06:42:28;101294.13;;;19.27;52.66
60725;BME280;59881;36.722;-4.462;2023-04-10T06:44:53;101335.00;;;19.94;52.57
60725;BME280;59881;36.722;-4.462;2023-04-10T06:47:19;101320.81;;;20.21;51.51
60725;BME280;59881;36.722;-4.462;2023-04-10T06:49:44;101274.50;;;20.39;50.25
60725;BME280;59881;36.722;-4.462;2023-04-10T06:52:10;101319.34;;;21.08;48.90
60725;BME280;59881;36.722;-4.462;2023-04-10T06:54:35;101180.88;;;20.83;48.05
60725;BME280;59881;36.722;-4.462;2023-04-10T06:57:01;101323.16;;;22.19;45.38
60725;BME280;59881;36.722;-4.462;2023-04-10T06:59:27;101322.44;;;22.76;44.24
60725;BME280;59881;36.722;-4.462;2023-04-10T07:01:53;101321.81;;;23.23;43.32
60725;BME280;59881;36.722;-4.462;2023-04-10T07:04:18;101299.91;;;23.42;42.13
60725;BME280;59881;36.722;-4.462;2023-04-10T07:06:44;101312.97;;;23.70;41.44
60725;BME280;59881;36.722;-4.462;2023-04-10T07:09:10;101189.53;;;23.44;40.95
60725;BME280;59881;36.722;-4.462;2023-04-10T07:11:36;101285.69;;;24.52;40.95
60725;BME280;59881;36.722;-4.462;2023-04-10T07:14:01;101330.09;;;25.25;40.13
60725;BME280;59881;36.722;-4.462;2023-04-10T07:16:27;101328.25;;;25.70;39.19
60725;BME280;59881;36.722;-4.462;2023-04-10T07:18:53;101305.28;;;26.04;37.53
60725;BME280;59881;36.722;-4.462;2023-04-10T07:21:19;101265.94;;;26.16;36.56
60725;BME280;59881;36.722;-4.462;2023-04-10T07:23:45;101286.28;;;26.70;35.70
60725;BME280;59881;36.722;-4.462;2023-04-10T07:26:11;101352.94;;;27.34;34.32
60725;BME280;59881;36.722;-4.462;2023-04-10T07:28:37;101257.31;;;27.20;31.93
60725;BME280;59881;36.722;-4.462;2023-04-10T07:31:02;101244.25;;;27.59;30.82
60725;BME280;59881;36.722;-4.462;2023-04-10T07:33:28;101333.41;;;28.77;29.19
60725;BME280;59881;36.722;-4.462;2023-04-10T07:35:53;101346.38;;;29.35;28.11
60725;BME280;59881;36.722;-4.462;2023-04-10T07:38:19;101348.19;;;29.81;26.82
60725;BME280;59881;36.722;-4.462;2023-04-10T07:40:45;101263.59;;;29.77;26.22
60725;BME280;59881;36.722;-4.462;2023-04-10T07:43:10;101289.69;;;30.30;25.14
60725;BME280;59881;36.722;-4.462;2023-04-10T07:45:36;101365.91;;;31.12;24.83
60725;BME280;59881;36.722;-4.462;2023-04-10T07:48:01;101344.31;;;31.42;24.59
60725;BME280;59881;36.722;-4.462;2023-04-10T07:50:27;101257.06;;;31.12;24.27
60725;BME280;59881;36.722;-4.462;2023-04-10T07:52:54;101327.19;;;31.90;23.89
60725;BME280;59881;36.722;-4.462;2023-04-10T07:55:20;101353.66;;;32.38;23.17
60725;BME280;59881;36.722;-4.462;2023-04-10T07:57:45;101353.66;;;32.69;23.03
60725;BME280;59881;36.722;-4.462;2023-04-10T08:00:11;101254.09;;;32.48;22.36
60725;BME280;59881;36.722;-4.462;2023-04-10T08:02:37;101352.00;;;33.33;22.17
60725;BME280;59881;36.722;-4.462;2023-04-10T08:05:05;101339.16;;;33.57;22.02
60725;BME280;59881;36.722;-4.462;2023-04-10T08:07:30;101311.22;;;33.79;21.61
60725;BME280;59881;36.722;-4.462;2023-04-10T08:09:56;101354.28;;;34.41;21.00
60725;BME280;59881;36.722;-4.462;2023-04-10T08:12:22;101292.59;;;34.33;20.53
60725;BME280;59881;36.722;-4.462;2023-04-10T08:14:47;101372.97;;;34.90;20.27
60725;BME280;59881;36.722;-4.462;2023-04-10T08:17:13;101239.72;;;34.45;20.32
60725;BME280;59881;36.722;-4.462;2023-04-10T08:19:42;101344.34;;;35.70;20.53
60725;BME280;59881;36.722;-4.462;2023-04-10T08:22:08;101261.72;;;35.83;19.78
60725;BME280;59881;36.722;-4.462;2023-04-10T08:24:33;101281.38;;;36.24;19.07
60725;BME280;59881;36.722;-4.462;2023-04-10T08:27:00;101199.47;;;36.11;19.08
60725;BME280;59881;36.722;-4.462;2023-04-10T08:29:25;101316.31;;;37.41;18.66
60725;BME280;59881;36.722;-4.462;2023-04-10T08:31:51;101324.72;;;37.72;18.07
60725;BME280;59881;36.722;-4.462;2023-04-10T08:34:16;101356.53;;;38.21;17.47
60725;BME280;59881;36.722;-4.462;2023-04-10T08:36:42;101352.50;;;38.64;17.33
60725;BME280;59881;36.722;-4.462;2023-04-10T08:39:07;101332.69;;;38.78;17.08
60725;BME280;59881;36.722;-4.462;2023-04-10T08:41:33;101354.44;;;39.00;16.56
60725;BME280;59881;36.722;-4.462;2023-04-10T08:43:58;101333.47;;;39.24;16.46
60725;BME280;59881;36.722;-4.462;2023-04-10T08:46:24;101169.41;;;38.77;16.40
60725;BME280;59881;36.722;-4.462;2023-04-10T08:49:03;101353.09;;;40.43;16.02
60725;BME280;59881;36.722;-4.462;2023-04-10T08:51:42;101262.53;;;40.10;15.14
60725;BME280;59881;36.722;-4.462;2023-04-10T08:54:20;101335.97;;;40.80;14.89
60725;BME280;59881;36.722;-4.462;2023-04-10T08:56:49;101348.59;;;41.45;15.08
60725;BME280;59881;36.722;-4.462;2023-04-10T08:59:16;101361.00;;;41.71;14.38
60725;BME280;59881;36.722;-4.462;2023-04-10T09:01:41;101238.34;;;41.19;14.59
60725;BME280;59881;36.722;-4.462;2023-04-10T09:04:10;101329.06;;;42.22;14.27
60725;BME280;59881;36.722;-4.462;2023-04-10T09:06:36;101358.13;;;42.76;13.53
60725;BME280;59881;36.722;-4.462;2023-04-10T09:09:01;101361.72;;;43.10;13.10
60725;BME280;59881;36.722;-4.462;2023-04-10T09:14:24;101367.63;;;44.28;12.74
60725;BME280;59881;36.722;-4.462;2023-04-10T09:16:52;101355.13;;;44.61;12.06
60725;BME280;59881;36.722;-4.462;2023-04-10T09:19:39;101373.72;;;44.97;11.86
60725;BME280;59881;36.722;-4.462;2023-04-10T09:22:04;101357.69;;;45.34;12.50
60725;BME280;59881;36.722;-4.462;2023-04-10T09:24:34;101214.41;;;44.57;11.97
60725;BME280;59881;36.722;-4.462;2023-04-10T09:27:01;101379.94;;;45.83;11.61
60725;BME280;59881;36.722;-4.462;2023-04-10T09:29:38;101377.88;;;46.23;11.67
60725;BME280;59881;36.722;-4.462;2023-04-10T09:32:03;101391.28;;;46.56;11.10
60725;BME280;59881;36.722;-4.462;2023-04-10T09:34:29;101287.41;;;46.30;11.40
60725;BME280;59881;36.722;-4.462;2023-04-10T09:36:59;101374.78;;;47.16;11.42
60725;BME280;59881;36.722;-4.462;2023-04-10T09:39:38;101350.69;;;47.02;11.18
60725;BME280;59881;36.722;-4.462;2023-04-10T09:42:08;101379.22;;;47.17;11.40
60725;BME280;59881;36.722;-4.462;2023-04-10T09:44:36;101266.09;;;46.51;11.24
60725;BME280;59881;36.722;-4.462;2023-04-10T09:47:20;101378.53;;;47.58;11.31
60725;BME280;59881;36.722;-4.462;2023-04-10T09:49:47;101294.78;;;47.37;10.67
60725;BME280;59881;36.722;-4.462;2023-04-10T09:52:24;101378.88;;;48.07;10.37
60725;BME280;59881;36.722;-4.462;2023-04-10T09:54:51;101276.31;;;47.75;10.46
60725;BME280;59881;36.722;-4.462;2023-04-10T09:57:19;101372.56;;;48.74;10.21
60725;BME280;59881;36.722;-4.462;2023-04-10T09:59:51;101371.81;;;48.64;10.75
60725;BME280;59881;36.722;-4.462;2023-04-10T10:02:21;101362.69;;;48.55;10.34
60725;BME280;59881;36.722;-4.462;2023-04-10T10:04:48;101298.25;;;48.39;10.27
60725;BME280;59881;36.722;-4.462;2023-04-10T10:07:18;101372.84;;;49.30;9.74
60725;BME280;59881;36.722;-4.462;2023-04-10T10:09:46;101272.03;;;48.89;9.68
60725;BME280;59881;36.722;-4.462;2023-04-10T10:12:22;101394.09;;;49.68;9.66
60725;BME280;59881;36.722;-4.462;2023-04-10T10:17:48;101319.44;;;49.60;9.36
60725;BME280;59881;36.722;-4.462;2023-04-10T10:20:19;101378.56;;;50.23;8.35
60725;BME280;59881;36.722;-4.462;2023-04-10T10:22:47;101375.97;;;50.30;8.59
60725;BME280;59881;36.722;-4.462;2023-04-10T10:25:15;101386.56;;;50.65;8.55
60725;BME280;59881;36.722;-4.462;2023-04-10T10:27:40;101380.91;;;50.93;8.87
60725;BME280;59881;36.722;-4.462;2023-04-10T10:30:08;101354.47;;;50.95;8.01
60725;BME280;59881;36.722;-4.462;2023-04-10T10:32:34;101396.97;;;51.09;8.23
60725;BME280;59881;36.722;-4.462;2023-04-10T10:35:01;101384.38;;;51.50;7.74
60725;BME280;59881;36.722;-4.462;2023-04-10T10:37:32;101382.19;;;51.12;8.12
60725;BME280;59881;36.722;-4.462;2023-04-10T10:40:13;101389.31;;;50.21;8.59
60725;BME280;59881;36.722;-4.462;2023-04-10T10:45:41;101370.47;;;47.86;9.63
60725;BME280;59881;36.722;-4.462;2023-04-10T10:48:08;101373.97;;;45.18;10.38
60725;BME280;59881;36.722;-4.462;2023-04-10T10:50:54;101357.97;;;41.73;12.45
60725;BME280;59881;36.722;-4.462;2023-04-10T10:53:43;101288.06;;;38.91;13.43
60725;BME280;59881;36.722;-4.462;2023-04-10T10:58:54;101383.13;;;37.42;15.74
60725;BME280;59881;36.722;-4.462;2023-04-10T11:01:22;101265.31;;;36.38;16.22
60725;BME280;59881;36.722;-4.462;2023-04-10T11:03:49;100917.84;;;33.84;16.73
60725;BME280;59881;36.722;-4.462;2023-04-10T11:06:16;101380.53;;;36.38;17.33
60725;BME280;59881;36.722;-4.462;2023-04-10T11:08:45;101382.97;;;35.91;17.46
60725;BME280;59881;36.722;-4.462;2023-04-10T11:11:27;101386.47;;;35.47;17.60
60725;BME280;59881;36.722;-4.462;2023-04-10T11:16:22;101351.97;;;34.50;23.55
60725;BME280;59881;36.722;-4.462;2023-04-10T11:21:14;101401.59;;;33.07;26.66
60725;BME280;59881;36.722;-4.462;2023-04-10T11:31:57;101399.06;;;30.64;31.15
60725;BME280;59881;36.722;-4.462;2023-04-10T11:34:24;101330.66;;;29.77;32.42
60725;BME280;59881;36.722;-4.462;2023-04-10T11:36:52;101398.06;;;29.93;32.47
60725;BME280;59881;36.722;-4.462;2023-04-10T11:39:18;101375.19;;;29.36;33.14
60725;BME280;59881;36.722;-4.462;2023-04-10T11:41:51;101394.41;;;29.34;33.38
60725;BME280;59881;36.722;-4.462;2023-04-10T11:44:31;101387.72;;;29.17;34.25
60725;BME280;59881;36.722;-4.462;2023-04-10T11:46:59;101392.47;;;28.95;34.68
60725;BME280;59881;36.722;-4.462;2023-04-10T11:49:34;101373.91;;;28.85;34.65
60725;BME280;59881;36.722;-4.462;2023-04-10T11:52:01;101369.09;;;29.07;34.73
60725;BME280;59881;36.722;-4.462;2023-04-10T11:54:28;101372.91;;;29.19;33.64
60725;BME280;59881;36.722;-4.462;2023-04-10T11:57:07;101381.66;;;29.35;34.07
60725;BME280;59881;36.722;-4.462;2023-04-10T11:59:37;101365.56;;;29.53;33.94
60725;BME280;59881;36.722;-4.462;2023-04-10T12:02:07;101376.84;;;29.57;33.46
60725;BME280;59881;36.722;-4.462;2023-04-10T12:04:34;101340.31;;;29.46;32.97
60725;BME280;59881;36.722;-4.462;2023-04-10T12:07:00;101344.03;;;29.65;32.97
60725;BME280;59881;36.722;-4.462;2023-04-10T12:09:26;101344.88;;;29.72;31.83
60725;BME280;59881;36.722;-4.462;2023-04-10T12:11:54;101249.78;;;29.20;32.11
60725;BME280;59881;36.722;-4.462;2023-04-10T12:14:21;101349.38;;;30.05;31.54
60725;BME280;59881;36.722;-4.462;2023-04-10T12:16:47;101127.78;;;28.74;30.75
60725;BME280;59881;36.722;-4.462;2023-04-10T12:19:14;101349.03;;;30.26;30.77
60725;BME280;59881;36.722;-4.462;2023-04-10T12:21:43;101352.19;;;30.30;30.69
60725;BME280;59881;36.722;-4.462;2023-04-10T12:24:10;101242.72;;;29.71;30.88
60725;BME280;59881;36.722;-4.462;2023-04-10T12:26:36;101340.63;;;30.41;30.78
60725;BME280;59881;36.722;-4.462;2023-04-10T12:29:02;101192.59;;;29.80;27.94
60725;BME280;59881;36.722;-4.462;2023-04-10T12:31:33;101319.19;;;30.90;23.90
60725;BME280;59881;36.722;-4.462;2023-04-10T12:33:59;101301.06;;;31.09;22.46
60725;BME280;59881;36.722;-4.462;2023-04-10T12:36:29;101303.94;;;31.32;20.44
60725;BME280;59881;36.722;-4.462;2023-04-10T12:39:01;101322.81;;;31.52;20.16
60725;BME280;59881;36.722;-4.462;2023-04-10T12:41:36;101240.19;;;31.03;19.14
60725;BME280;59881;36.722;-4.462;2023-04-10T12:44:11;101300.00;;;31.53;18.99
60725;BME280;59881;36.722;-4.462;2023-04-10T12:46:37;101313.41;;;31.55;18.34
60725;BME280;59881;36.722;-4.462;2023-04-10T12:49:11;101295.59;;;31.52;19.33
60725;BME280;59881;36.722;-4.462;2023-04-10T12:51:49;101225.75;;;31.03;17.98
60725;BME280;59881;36.722;-4.462;2023-04-10T12:54:31;101305.06;;;31.50;18.35
60725;BME280;59881;36.722;-4.462;2023-04-10T12:56:57;101189.09;;;30.87;18.36
60725;BME280;59881;36.722;-4.462;2023-04-10T12:59:23;101303.47;;;31.61;18.50
60725;BME280;59881;36.722;-4.462;2023-04-10T13:01:51;101197.78;;;30.96;18.62
60725;BME280;59881;36.722;-4.462;2023-04-10T13:04:16;101249.56;;;31.26;18.15
60725;BME280;59881;36.722;-4.462;2023-04-10T13:06:46;101283.72;;;31.47;18.33
60725;BME280;59881;36.722;-4.462;2023-04-10T13:09:13;101290.63;;;31.49;18.99
60725;BME280;59881;36.722;-4.462;2023-04-10T13:11:39;101254.94;;;31.32;19.54
60725;BME280;59881;36.722;-4.462;2023-04-10T13:14:04;101273.53;;;31.42;19.53
60725;BME280;59881;36.722;-4.462;2023-04-10T13:16:30;101276.38;;;31.47;19.21